sensor_id;sensor_type;location;lat;lon;timestamp;pressure;altitude;pressure_sealevel;temperature;humidity
71764;BME280;59602;52.142;5.408;2023-04-07T00:01:14;101579.59;;;8.50;100.00
71764;BME280;59602;52.142;5.408;2023-04-07T00:03:41;101588.88;;;8.49;99.59
71764;BME280;59602;52.142;5.408;2023-04-07T00:06:09;101593.84;;;8.47;99.87
71764;BME280;59602;52.142;5.408;2023-04-07T00:08:36;101595.78;;;8.47;99.65
71764;BME280;59602;52.142;5.408;2023-04-07T00:11:02;101596.88;;;8.46;99.57
71764;BME280;59602;52.142;5.408;2023-04-07T00:13:29;101598.81;;;8.45;99.57
71764;BME280;59602;52.142;5.408;2023-04-07T00:15:56;101595.66;;;8.43;99.58
71764;BME280;59602;52.142;5.408;2023-04-07T00:18:24;101596.44;;;8.44;99.52
71764;BME280;59602;52.142;5.408;2023-04-07T00:20:51;101598.38;;;8.43;99.44
71764;BME280;59602;52.142;5.408;2023-04-07T00:23:18;101593.66;;;8.40;99.36
71764;BME280;59602;52.142;5.408;2023-04-07T00:25:47;101599.38;;;8.39;99.27
71764;BME280;59602;52.142;5.408;2023-04-07T00:28:14;101604.94;;;8.42;99.15
71764;BME280;59602;52.142;5.408;2023-04-07T00:30:41;101597.59;;;8.43;99.38
71764;BME280;59602;52.142;5.408;2023-04-07T00:33:07;101603.34;;;8.41;99.24
71764;BME280;59602;52.142;5.408;2023-04-07T00:35:35;101602.88;;;8.39;99.40
71764;BME280;59602;52.142;5.408;2023-04-07T00:38:01;101609.09;;;8.40;98.89
71764;BME280;59602;52.142;5.408;2023-04-07T00:40:28;101597.44;;;8.39;99.37
71764;BME280;59602;52.142;5.408;2023-04-07T00:42:55;101602.88;;;8.39;99.12
71764;BME280;59602;52.142;5.408;2023-04-07T00:45:22;101602.44;;;8.37;99.10
71764;BME280;59602;52.142;5.408;2023-04-07T00:47:48;101599.72;;;8.37;98.71
71764;BME280;59602;52.142;5.408;2023-04-07T00:50:15;101598.94;;;8.37;98.80
71764;BME280;59602;52.142;5.408;2023-04-07T00:52:43;101599.31;;;8.35;98.63
71764;BME280;59602;52.142;5.408;2023-04-07T00:55:10;101610.13;;;8.35;98.73
71764;BME280;59602;52.142;5.408;2023-04-07T00:57:37;101609.00;;;8.36;98.35
71764;BME280;59602;52.142;5.408;2023-04-07T01:00:04;101597.38;;;8.36;98.47
71764;BME280;59602;52.142;5.408;2023-04-07T01:02:40;101597.81;;;8.38;98.82
71764;BME280;59602;52.142;5.408;2023-04-07T01:07:47;101603.91;;;8.35;99.02
71764;BME280;59602;52.142;5.408;2023-04-07T01:10:21;101608.53;;;8.34;98.62
71764;BME280;59602;52.142;5.408;2023-04-07T01:13:02;101608.09;;;8.32;98.63
71764;BME280;59602;52.142;5.408;2023-04-07T01:15:33;101609.25;;;8.31;98.64
71764;BME280;59602;52.142;5.408;2023-04-07T01:18:09;101592.22;;;8.30;98.88
71764;BME280;59602;52.142;5.408;2023-04-07T01:20:38;101604.94;;;8.30;99.00
71764;BME280;59602;52.142;5.408;2023-04-07T01:23:06;101605.41;;;8.32;98.86
71764;BME280;59602;52.142;5.408;2023-04-07T01:31:11;101598.28;;;8.27;98.84
71764;BME280;59602;52.142;5.408;2023-04-07T01:33:38;101608.03;;;8.28;99.02
71764;BME280;59602;52.142;5.408;2023-04-07T01:36:06;101604.50;;;8.28;99.37
71764;BME280;59602;52.142;5.408;2023-04-07T01:38:34;101610.28;;;8.26;99.02
71764;BME280;59602;52.142;5.408;2023-04-07T01:41:02;101606.09;;;8.29;98.94
71764;BME280;59602;52.142;5.408;2023-04-07T01:43:30;101605.75;;;8.30;99.06
71764;BME280;59602;52.142;5.408;2023-04-07T01:45:57;101605.75;;;8.30;98.94
71764;BME280;59602;52.142;5.408;2023-04-07T01:48:25;101612.28;;;8.29;98.77
71764;BME280;59602;52.142;5.408;2023-04-07T01:50:53;101606.09;;;8.29;99.00
71764;BME280;59602;52.142;5.408;2023-04-07T01:53:22;101612.63;;;8.28;98.92
71764;BME280;59602;52.142;5.408;2023-04-07T01:55:51;101608.03;;;8.28;98.93
71764;BME280;59602;52.142;5.408;2023-04-07T01:58:19;101608.03;;;8.28;98.75
71764;BME280;59602;52.142;5.408;2023-04-07T02:00:45;101603.03;;;8.30;98.81
71764;BME280;59602;52.142;5.408;2023-04-07T02:03:17;101601.13;;;8.31;98.76
71764;BME280;59602;52.142;5.408;2023-04-07T02:05:48;101608.09;;;8.32;99.09
71764;BME280;59602;52.142;5.408;2023-04-07T02:08:17;101601.56;;;8.33;98.94
71764;BME280;59602;52.142;5.408;2023-04-07T02:10:46;101603.47;;;8.32;99.03
71764;BME280;59602;52.142;5.408;2023-04-07T02:13:17;101596.94;;;8.34;98.75
71764;BME280;59602;52.142;5.408;2023-04-07T02:15:45;101603.13;;;8.34;98.79
71764;BME280;59602;52.142;5.408;2023-04-07T02:18:15;101601.56;;;8.33;98.67
71764;BME280;59602;52.142;5.408;2023-04-07T02:20:42;101599.63;;;8.34;99.01
71764;BME280;59602;52.142;5.408;2023-04-07T02:23:11;101603.13;;;8.34;98.87
71764;BME280;59602;52.142;5.408;2023-04-07T02:25:38;101608.53;;;8.34;99.14
71764;BME280;59602;52.142;5.408;2023-04-07T02:28:05;101610.91;;;8.36;98.69
71764;BME280;59602;52.142;5.408;2023-04-07T02:30:32;101612.84;;;8.35;98.61
71764;BME280;59602;52.142;5.408;2023-04-07T02:32:59;101615.56;;;8.35;98.83
71764;BME280;59602;52.142;5.408;2023-04-07T02:35:26;101615.19;;;8.37;98.95
71764;BME280;59602;52.142;5.408;2023-04-07T02:37:53;101614.41;;;8.36;98.61
71764;BME280;59602;52.142;5.408;2023-04-07T02:40:19;101603.13;;;8.34;98.53
71764;BME280;59602;52.142;5.408;2023-04-07T02:42:46;101609.69;;;8.33;98.87
71764;BME280;59602;52.142;5.408;2023-04-07T02:45:14;101610.91;;;8.36;98.62
71764;BME280;59602;52.142;5.408;2023-04-07T02:47:41;101609.69;;;8.33;98.62
71764;BME280;59602;52.142;5.408;2023-04-07T02:50:08;101609.69;;;8.33;98.72
71764;BME280;59602;52.142;5.408;2023-04-07T02:52:35;101615.56;;;8.35;98.88
71764;BME280;59602;52.142;5.408;2023-04-07T02:55:02;101614.84;;;8.38;98.60
71764;BME280;59602;52.142;5.408;2023-04-07T02:57:28;101611.38;;;8.38;98.59
71764;BME280;59602;52.142;5.408;2023-04-07T02:59:55;101616.78;;;8.38;98.50
71764;BME280;59602;52.142;5.408;2023-04-07T03:02:23;101612.16;;;8.38;98.73
71764;BME280;59602;52.142;5.408;2023-04-07T03:04:51;101614.84;;;8.38;98.65
71764;BME280;59602;52.142;5.408;2023-04-07T03:07:18;101618.34;;;8.39;98.56
71764;BME280;59602;52.142;5.408;2023-04-07T03:09:45;101620.63;;;8.37;98.35
71764;BME280;59602;52.142;5.408;2023-04-07T03:12:11;101620.63;;;8.37;98.17
71764;BME280;59602;52.142;5.408;2023-04-07T03:14:38;101620.16;;;8.35;98.81
71764;BME280;59602;52.142;5.408;2023-04-07T03:17:05;101610.13;;;8.35;98.60
71764;BME280;59602;52.142;5.408;2023-04-07T03:19:32;101619.84;;;8.36;98.38
71764;BME280;59602;52.142;5.408;2023-04-07T03:21:59;101621.31;;;8.34;98.81
71764;BME280;59602;52.142;5.408;2023-04-07T03:24:25;101613.97;;;8.34;98.87
71764;BME280;59602;52.142;5.408;2023-04-07T03:26:53;101618.28;;;8.35;98.61
71764;BME280;59602;52.142;5.408;2023-04-07T03:29:20;101622.88;;;8.35;98.45
71764;BME280;59602;52.142;5.408;2023-04-07T03:31:46;101623.69;;;8.35;98.67
71764;BME280;59602;52.142;5.408;2023-04-07T03:34:13;101620.16;;;8.35;98.72
71764;BME280;59602;52.142;5.408;2023-04-07T03:36:40;101618.28;;;8.35;98.43
71764;BME280;59602;52.142;5.408;2023-04-07T03:39:07;101630.66;;;8.36;98.81
71764;BME280;59602;52.142;5.408;2023-04-07T03:41:34;101626.81;;;8.37;98.60
71764;BME280;59602;52.142;5.408;2023-04-07T03:44:00;101629.97;;;8.39;98.85
71764;BME280;59602;52.142;5.408;2023-04-07T03:46:27;101635.09;;;8.41;98.43
71764;BME280;59602;52.142;5.408;2023-04-07T03:48:53;101625.38;;;8.40;98.49
71764;BME280;59602;52.142;5.408;2023-04-07T03:51:20;101620.28;;;8.38;98.33
71764;BME280;59602;52.142;5.408;2023-04-07T03:53:47;101615.97;;;8.37;98.30
71764;BME280;59602;52.142;5.408;2023-04-07T03:56:13;101622.53;;;8.36;98.36
71764;BME280;59602;52.142;5.408;2023-04-07T03:58:40;101624.09;;;8.37;98.52
71764;BME280;59602;52.142;5.408;2023-04-07T04:01:08;101624.91;;;8.38;98.37
71764;BME280;59602;52.142;5.408;2023-04-07T04:03:34;101617.56;;;8.38;98.45
71764;BME280;59602;52.142;5.408;2023-04-07T04:06:01;101624.56;;;8.39;98.38
71764;BME280;59602;52.142;5.408;2023-04-07T04:08:28;101622.66;;;8.40;98.36
71764;BME280;59602;52.142;5.408;2023-04-07T04:10:55;101623.47;;;8.40;98.39
71764;BME280;59602;52.142;5.408;2023-04-07T04:13:22;101623.91;;;8.42;98.61
71764;BME280;59602;52.142;5.408;2023-04-07T04:15:50;101629.31;;;8.42;98.27
71764;BME280;59602;52.142;5.408;2023-04-07T04:18:16;101634.31;;;8.40;98.36
71764;BME280;59602;52.142;5.408;2023-04-07T04:20:43;101634.59;;;8.39;98.51
71764;BME280;59602;52.142;5.408;2023-04-07T04:23:09;101636.88;;;8.37;98.57
71764;BME280;59602;52.142;5.408;2023-04-07T04:25:36;101641.97;;;8.38;98.45
71764;BME280;59602;52.142;5.408;2023-04-07T04:28:05;101635.38;;;8.39;98.20
71764;BME280;59602;52.142;5.408;2023-04-07T04:30:32;101642.75;;;8.39;98.23
71764;BME280;59602;52.142;5.408;2023-04-07T04:32:58;101646.22;;;8.39;98.12
71764;BME280;59602;52.142;5.408;2023-04-07T04:35:25;101642.75;;;8.39;98.53
71764;BME280;59602;52.142;5.408;2023-04-07T04:37:52;101645.44;;;8.39;98.55
71764;BME280;59602;52.142;5.408;2023-04-07T04:40:19;101642.75;;;8.39;98.32
71764;BME280;59602;52.142;5.408;2023-04-07T04:42:46;101652.00;;;8.38;98.26
71764;BME280;59602;52.142;5.408;2023-04-07T04:45:12;101655.84;;;8.37;98.19
71764;BME280;59602;52.142;5.408;2023-04-07T04:47:39;101662.41;;;8.36;98.10
71764;BME280;59602;52.142;5.408;2023-04-07T04:50:07;101661.25;;;8.37;98.12
71764;BME280;59602;52.142;5.408;2023-04-07T04:52:33;101668.28;;;8.38;98.14
71764;BME280;59602;52.142;5.408;2023-04-07T04:55:00;101666.34;;;8.38;98.58
71764;BME280;59602;52.142;5.408;2023-04-07T04:57:27;101667.13;;;8.39;98.25
71764;BME280;59602;52.142;5.408;2023-04-07T04:59:54;101667.13;;;8.39;98.30
71764;BME280;59602;52.142;5.408;2023-04-07T05:02:21;101676.72;;;8.36;97.95
71764;BME280;59602;52.142;5.408;2023-04-07T05:04:47;101667.03;;;8.35;98.09
71764;BME280;59602;52.142;5.408;2023-04-07T05:07:14;101681.81;;;8.38;97.80
71764;BME280;59602;52.142;5.408;2023-04-07T05:09:41;101678.31;;;8.37;97.62
71764;BME280;59602;52.142;5.408;2023-04-07T05:12:08;101672.88;;;8.37;97.57
71764;BME280;59602;52.142;5.408;2023-04-07T05:14:34;101674.81;;;8.37;97.21
71764;BME280;59602;52.142;5.408;2023-04-07T05:17:02;101670.16;;;8.37;97.12
71764;BME280;59602;52.142;5.408;2023-04-07T05:19:29;101684.53;;;8.38;96.64
71764;BME280;59602;52.142;5.408;2023-04-07T05:21:55;101685.31;;;8.38;96.72
71764;BME280;59602;52.142;5.408;2023-04-07T05:24:23;101677.66;;;8.40;96.44
71764;BME280;59602;52.142;5.408;2023-04-07T05:26:51;101676.03;;;8.39;96.35
71764;BME280;59602;52.142;5.408;2023-04-07T05:29:18;101681.47;;;8.39;96.55
71764;BME280;59602;52.142;5.408;2023-04-07T05:31:44;101680.69;;;8.39;96.70
71764;BME280;59602;52.142;5.408;2023-04-07T05:34:11;101685.66;;;8.37;97.05
71764;BME280;59602;52.142;5.408;2023-04-07T05:36:39;101686.78;;;8.36;96.92
71764;BME280;59602;52.142;5.408;2023-04-07T05:39:06;101691.44;;;8.35;97.12
71764;BME280;59602;52.142;5.408;2023-04-07T05:41:32;101687.13;;;8.34;97.00
71764;BME280;59602;52.142;5.408;2023-04-07T05:43:59;101685.56;;;8.33;97.27
71764;BME280;59602;52.142;5.408;2023-04-07T05:46:25;101691.44;;;8.35;97.43
71764;BME280;59602;52.142;5.408;2023-04-07T05:48:52;101694.13;;;8.35;97.66
71764;BME280;59602;52.142;5.408;2023-04-07T05:51:18;101689.84;;;8.34;97.70
71764;BME280;59602;52.142;5.408;2023-04-07T05:53:45;101691.44;;;8.35;97.88
71764;BME280;59602;52.142;5.408;2023-04-07T05:56:12;101693.78;;;8.37;97.76
71764;BME280;59602;52.142;5.408;2023-04-07T05:58:38;101708.91;;;8.38;97.86
71764;BME280;59602;52.142;5.408;2023-04-07T06:01:05;101704.97;;;8.35;97.99
71764;BME280;59602;52.142;5.408;2023-04-07T06:03:31;101704.63;;;8.37;97.98
71764;BME280;59602;52.142;5.408;2023-04-07T06:05:58;101707.00;;;8.38;98.19
71764;BME280;59602;52.142;5.408;2023-04-07T06:08:25;101715.13;;;8.38;98.08
71764;BME280;59602;52.142;5.408;2023-04-07T06:10:52;101715.44;;;8.37;98.17
71764;BME280;59602;52.142;5.408;2023-04-07T06:13:19;101714.66;;;8.36;98.46
71764;BME280;59602;52.142;5.408;2023-04-07T06:15:45;101716.22;;;8.37;98.45
71764;BME280;59602;52.142;5.408;2023-04-07T06:18:12;101715.13;;;8.38;98.30
71764;BME280;59602;52.142;5.408;2023-04-07T06:20:40;101716.69;;;8.39;98.64
71764;BME280;59602;52.142;5.408;2023-04-07T06:23:06;101719.41;;;8.39;98.30
71764;BME280;59602;52.142;5.408;2023-04-07T06:25:33;101726.28;;;8.37;98.25
71764;BME280;59602;52.142;5.408;2023-04-07T06:28:00;101722.81;;;8.36;98.70
71764;BME280;59602;52.142;5.408;2023-04-07T06:30:27;101730.94;;;8.36;98.45
71764;BME280;59602;52.142;5.408;2023-04-07T06:32:53;101724.38;;;8.37;98.50
71764;BME280;59602;52.142;5.408;2023-04-07T06:35:20;101728.81;;;8.42;98.60
71764;BME280;59602;52.142;5.408;2023-04-07T06:37:47;101728.44;;;8.43;98.61
71764;BME280;59602;52.142;5.408;2023-04-07T06:40:14;101731.28;;;8.47;98.57
71764;BME280;59602;52.142;5.408;2023-04-07T06:42:41;101730.94;;;8.48;98.63
71764;BME280;59602;52.142;5.408;2023-04-07T06:45:08;101727.88;;;8.50;98.24
71764;BME280;59602;52.142;5.408;2023-04-07T06:47:34;101734.06;;;8.50;98.40
71764;BME280;59602;52.142;5.408;2023-04-07T06:50:01;101737.22;;;8.52;98.21
71764;BME280;59602;52.142;5.408;2023-04-07T06:52:28;101737.34;;;8.56;98.57
71764;BME280;59602;52.142;5.408;2023-04-07T06:54:54;101744.00;;;8.59;98.29
71764;BME280;59602;52.142;5.408;2023-04-07T06:57:21;101745.59;;;8.60;98.31
71764;BME280;59602;52.142;5.408;2023-04-07T06:59:48;101744.91;;;8.63;98.30
71764;BME280;59602;52.142;5.408;2023-04-07T07:02:14;101749.63;;;8.66;98.47
71764;BME280;59602;52.142;5.408;2023-04-07T07:04:41;101748.13;;;8.68;98.51
71764;BME280;59602;52.142;5.408;2023-04-07T07:07:08;101756.72;;;8.70;98.16
71764;BME280;59602;52.142;5.408;2023-04-07T07:09:34;101760.34;;;8.75;98.14
71764;BME280;59602;52.142;5.408;2023-04-07T07:12:01;101760.00;;;8.76;98.29
71764;BME280;59602;52.142;5.408;2023-04-07T07:14:29;101753.88;;;8.79;98.31
71764;BME280;59602;52.142;5.408;2023-04-07T07:16:56;101761.34;;;8.82;97.81
71764;BME280;59602;52.142;5.408;2023-04-07T07:19:22;101756.38;;;8.84;98.17
71764;BME280;59602;52.142;5.408;2023-04-07T07:21:49;101763.47;;;8.89;98.11
71764;BME280;59602;52.142;5.408;2023-04-07T07:24:16;101765.81;;;8.90;97.99
71764;BME280;59602;52.142;5.408;2023-04-07T07:26:44;101774.75;;;8.91;98.11
71764;BME280;59602;52.142;5.408;2023-04-07T07:29:11;101773.63;;;8.92;97.88
71764;BME280;59602;52.142;5.408;2023-04-07T07:31:38;101776.00;;;8.93;97.77
71764;BME280;59602;52.142;5.408;2023-04-07T07:34:05;101771.69;;;8.92;97.49
71764;BME280;59602;52.142;5.408;2023-04-07T07:36:32;101777.81;;;8.89;97.54
71764;BME280;59602;52.142;5.408;2023-04-07T07:38:58;101785.16;;;8.89;97.20
71764;BME280;59602;52.142;5.408;2023-04-07T07:41:25;101785.16;;;8.89;97.13
71764;BME280;59602;52.142;5.408;2023-04-07T07:43:52;101786.38;;;8.91;97.44
71764;BME280;59602;52.142;5.408;2023-04-07T07:46:19;101788.84;;;8.97;97.43
71764;BME280;59602;52.142;5.408;2023-04-07T07:48:46;101785.81;;;8.98;97.31
71764;BME280;59602;52.142;5.408;2023-04-07T07:51:12;101788.50;;;8.98;96.96
71764;BME280;59602;52.142;5.408;2023-04-07T07:53:39;101786.25;;;9.00;96.98
71764;BME280;59602;52.142;5.408;2023-04-07T07:56:06;101789.03;;;9.04;97.08
71764;BME280;59602;52.142;5.408;2023-04-07T07:58:32;101796.84;;;9.05;97.10
71764;BME280;59602;52.142;5.408;2023-04-07T08:00:59;101798.06;;;9.08;96.50
71764;BME280;59602;52.142;5.408;2023-04-07T08:03:26;101798.84;;;9.08;96.65
71764;BME280;59602;52.142;5.408;2023-04-07T08:05:52;101801.22;;;9.10;96.57
71764;BME280;59602;52.142;5.408;2023-04-07T08:08:19;101804.41;;;9.12;96.57
71764;BME280;59602;52.142;5.408;2023-04-07T08:10:46;101804.94;;;9.18;96.51
71764;BME280;59602;52.142;5.408;2023-04-07T08:13:12;101811.59;;;9.20;96.45
71764;BME280;59602;52.142;5.408;2023-04-07T08:15:39;101816.66;;;9.22;96.21
71764;BME280;59602;52.142;5.408;2023-04-07T08:18:06;101817.13;;;9.24;95.71
71764;BME280;59602;52.142;5.408;2023-04-07T08:20:33;101811.25;;;9.22;94.95
71764;BME280;59602;52.142;5.408;2023-04-07T08:22:59;101820.09;;;9.19;94.58
71764;BME280;59602;52.142;5.408;2023-04-07T08:25:28;101825.84;;;9.17;94.29
71764;BME280;59602;52.142;5.408;2023-04-07T08:27:55;101816.66;;;9.22;94.17
71764;BME280;59602;52.142;5.408;2023-04-07T08:30:21;101824.22;;;9.28;93.72
71764;BME280;59602;52.142;5.408;2023-04-07T08:32:48;101826.69;;;9.33;93.38
71764;BME280;59602;52.142;5.408;2023-04-07T08:35:15;101827.22;;;9.39;93.24
71764;BME280;59602;52.142;5.408;2023-04-07T08:37:41;101826.28;;;9.47;92.47
71764;BME280;59602;52.142;5.408;2023-04-07T08:40:10;101831.72;;;9.47;91.96
71764;BME280;59602;52.142;5.408;2023-04-07T08:42:40;101829.97;;;9.55;91.73
71764;BME280;59602;52.142;5.408;2023-04-07T08:45:08;101830.97;;;9.63;91.37
71764;BME280;59602;52.142;5.408;2023-04-07T08:47:36;101840.00;;;9.67;91.01
71764;BME280;59602;52.142;5.408;2023-04-07T08:50:07;101838.25;;;9.74;91.67
71764;BME280;59602;52.142;5.408;2023-04-07T08:52:44;101838.34;;;9.78;90.75
71764;BME280;59602;52.142;5.408;2023-04-07T08:55:12;101838.34;;;9.78;90.48
71764;BME280;59602;52.142;5.408;2023-04-07T08:57:40;101840.69;;;9.80;90.00
71764;BME280;59602;52.142;5.408;2023-04-07T09:00:07;101842.81;;;9.86;90.43
71764;BME280;59602;52.142;5.408;2023-04-07T09:02:36;101850.28;;;9.89;89.00
71764;BME280;59602;52.142;5.408;2023-04-07T09:05:06;101858.41;;;9.89;89.54
71764;BME280;59602;52.142;5.408;2023-04-07T09:07:37;101861.47;;;9.88;89.79
71764;BME280;59602;52.142;5.408;2023-04-07T09:10:04;101861.47;;;9.88;88.68
71764;BME280;59602;52.142;5.408;2023-04-07T09:12:34;101857.19;;;9.87;88.60
71764;BME280;59602;52.142;5.408;2023-04-07T09:15:02;101865.53;;;9.94;88.99
71764;BME280;59602;52.142;5.408;2023-04-07T09:17:28;101865.59;;;9.97;88.37
71764;BME280;59602;52.142;5.408;2023-04-07T09:19:56;101869.53;;;10.00;88.32
71764;BME280;59602;52.142;5.408;2023-04-07T09:22:36;101865.34;;;10.03;88.13
71764;BME280;59602;52.142;5.408;2023-04-07T09:25:20;101878.94;;;10.03;88.34
71764;BME280;59602;52.142;5.408;2023-04-07T09:28:00;101869.91;;;9.98;88.03
71764;BME280;59602;52.142;5.408;2023-04-07T09:30:29;101865.06;;;9.92;87.56
71764;BME280;59602;52.142;5.408;2023-04-07T09:32:57;101872.34;;;9.88;86.92
71764;BME280;59602;52.142;5.408;2023-04-07T09:35:24;101867.19;;;9.83;87.55
71764;BME280;59602;52.142;5.408;2023-04-07T09:38:08;101874.09;;;9.80;87.14
71764;BME280;59602;52.142;5.408;2023-04-07T09:47:06;101870.56;;;9.80;86.90
71764;BME280;59602;52.142;5.408;2023-04-07T09:52:47;101879.34;;;9.89;86.99
71764;BME280;59602;52.142;5.408;2023-04-07T09:58:11;101870.41;;;9.88;86.38
71764;BME280;59602;52.142;5.408;2023-04-07T10:01:02;101879.09;;;9.94;85.85
71764;BME280;59602;52.142;5.408;2023-04-07T10:03:47;101887.31;;;9.97;85.81
71764;BME280;59602;52.142;5.408;2023-04-07T10:11:49;101886.28;;;10.02;85.54
71764;BME280;59602;52.142;5.408;2023-04-07T10:15:03;101889.53;;;10.08;86.89
71764;BME280;59602;52.142;5.408;2023-04-07T10:17:36;101881.72;;;10.06;86.33
71764;BME280;59602;52.142;5.408;2023-04-07T10:20:08;101887.16;;;10.06;86.35
71764;BME280;59602;52.142;5.408;2023-04-07T10:22:37;101891.03;;;10.05;85.91
71764;BME280;59602;52.142;5.408;2023-04-07T10:25:08;101896.38;;;10.02;85.20
71764;BME280;59602;52.142;5.408;2023-04-07T10:27:42;101899.00;;;9.98;85.64
71764;BME280;59602;52.142;5.408;2023-04-07T10:30:20;101898.19;;;9.97;85.81
71764;BME280;59602;52.142;5.408;2023-04-07T10:32:49;101908.28;;;9.97;85.24
71764;BME280;59602;52.142;5.408;2023-04-07T10:35:18;101903.19;;;9.95;85.71
71764;BME280;59602;52.142;5.408;2023-04-07T10:40:35;101905.22;;;9.98;85.83
71764;BME280;59602;52.142;5.408;2023-04-07T10:43:37;101911.34;;;9.95;84.82
71764;BME280;59602;52.142;5.408;2023-04-07T10:46:05;101913.59;;;9.93;84.78
71764;BME280;59602;52.142;5.408;2023-04-07T10:48:40;101916.31;;;9.93;84.59
71764;BME280;59602;52.142;5.408;2023-04-07T10:51:10;101922.56;;;9.94;84.55
71764;BME280;59602;52.142;5.408;2023-04-07T10:54:15;101922.56;;;9.94;84.40
71764;BME280;59602;52.142;5.408;2023-04-07T10:57:07;101925.72;;;9.96;84.00
71764;BME280;59602;52.142;5.408;2023-04-07T11:02:45;101923.81;;;9.96;84.45
71764;BME280;59602;52.142;5.408;2023-04-07T11:05:26;101921.41;;;9.95;84.63
71764;BME280;59602;52.142;5.408;2023-04-07T11:07:54;101918.63;;;9.91;84.27
71764;BME280;59602;52.142;5.408;2023-04-07T11:10:23;101925.28;;;9.94;84.63
71764;BME280;59602;52.142;5.408;2023-04-07T11:12:58;101929.91;;;9.93;84.47
71764;BME280;59602;52.142;5.408;2023-04-07T11:15:27;101932.28;;;9.95;83.84
71764;BME280;59602;52.142;5.408;2023-04-07T11:18:20;101933.44;;;9.94;83.61
71764;BME280;59602;52.142;5.408;2023-04-07T11:20:54;101929.91;;;9.93;84.12
71764;BME280;59602;52.142;5.408;2023-04-07T11:23:23;101927.31;;;9.97;83.58
71764;BME280;59602;52.142;5.408;2023-04-07T11:26:00;101934.75;;;10.00;83.66
71764;BME280;59602;52.142;5.408;2023-04-07T11:28:29;101938.44;;;10.08;83.81
71764;BME280;59602;52.142;5.408;2023-04-07T11:30:58;101943.72;;;10.16;83.63
71764;BME280;59602;52.142;5.408;2023-04-07T11:33:30;101937.59;;;10.19;83.33
71764;BME280;59602;52.142;5.408;2023-04-07T11:36:01;101937.25;;;10.21;83.36
71764;BME280;59602;52.142;5.408;2023-04-07T11:41:09;101943.91;;;10.24;83.92
71764;BME280;59602;52.142;5.408;2023-04-07T11:43:37;101951.63;;;10.22;83.82
71764;BME280;59602;52.142;5.408;2023-04-07T11:46:12;101947.34;;;10.21;83.63
71764;BME280;59602;52.142;5.408;2023-04-07T11:48:43;101947.22;;;10.17;83.35
71764;BME280;59602;52.142;5.408;2023-04-07T11:51:20;101955.38;;;10.17;82.71
71764;BME280;59602;52.142;5.408;2023-04-07T11:53:54;101940.56;;;10.14;82.65
71764;BME280;59602;52.142;5.408;2023-04-07T11:56:22;101949.50;;;10.15;82.64
71764;BME280;59602;52.142;5.408;2023-04-07T11:58:53;101952.22;;;10.15;82.91
71764;BME280;59602;52.142;5.408;2023-04-07T12:01:38;101954.34;;;10.22;82.79
71764;BME280;59602;52.142;5.408;2023-04-07T12:04:12;101955.56;;;10.24;83.06
71764;BME280;59602;52.142;5.408;2023-04-07T12:06:40;101959.06;;;10.25;83.04
71764;BME280;59602;52.142;5.408;2023-04-07T12:11:52;101965.41;;;10.29;82.91
71764;BME280;59602;52.142;5.408;2023-04-07T12:14:18;101972.44;;;10.30;82.78
71764;BME280;59602;52.142;5.408;2023-04-07T12:16:46;101964.38;;;10.33;83.30
71764;BME280;59602;52.142;5.408;2023-04-07T12:19:26;101974.91;;;10.35;82.17
71764;BME280;59602;52.142;5.408;2023-04-07T12:21:56;101981.47;;;10.34;82.79
71764;BME280;59602;52.142;5.408;2023-04-07T12:24:26;101976.84;;;10.34;82.67
71764;BME280;59602;52.142;5.408;2023-04-07T12:26:53;101976.38;;;10.32;82.26
71764;BME280;59602;52.142;5.408;2023-04-07T12:29:20;101977.63;;;10.35;82.36
71764;BME280;59602;52.142;5.408;2023-04-07T12:31:48;101983.50;;;10.37;82.96
71764;BME280;59602;52.142;5.408;2023-04-07T12:34:18;101988.59;;;10.38;82.64
71764;BME280;59602;52.142;5.408;2023-04-07T12:36:44;101980.78;;;10.37;82.16
71764;BME280;59602;52.142;5.408;2023-04-07T12:39:12;101976.50;;;10.36;81.69
71764;BME280;59602;52.142;5.408;2023-04-07T12:41:40;101983.16;;;10.38;82.10
71764;BME280;59602;52.142;5.408;2023-04-07T12:44:07;101985.94;;;10.42;82.17
71764;BME280;59602;52.142;5.408;2023-04-07T12:46:43;101995.31;;;10.45;82.88
71764;BME280;59602;52.142;5.408;2023-04-07T12:49:10;101991.81;;;10.44;81.81
71764;BME280;59602;52.142;5.408;2023-04-07T12:51:39;101989.03;;;10.41;81.70
71764;BME280;59602;52.142;5.408;2023-04-07T12:54:09;101987.09;;;10.41;82.22
71764;BME280;59602;52.142;5.408;2023-04-07T12:56:36;101990.25;;;10.43;82.17
71764;BME280;59602;52.142;5.408;2023-04-07T12:59:03;101996.16;;;10.45;82.03
71764;BME280;59602;52.142;5.408;2023-04-07T13:01:29;102004.28;;;10.45;81.42
71764;BME280;59602;52.142;5.408;2023-04-07T13:03:58;101998.84;;;10.45;81.42
71764;BME280;59602;52.142;5.408;2023-04-07T13:06:25;102005.41;;;10.44;80.94
71764;BME280;59602;52.142;5.408;2023-04-07T13:08:52;102004.97;;;10.42;81.05
71764;BME280;59602;52.142;5.408;2023-04-07T13:11:19;102012.78;;;10.44;81.57
71764;BME280;59602;52.142;5.408;2023-04-07T13:13:48;102004.97;;;10.42;81.53
71764;BME280;59602;52.142;5.408;2023-04-07T13:16:16;102014.19;;;10.37;81.35
71764;BME280;59602;52.142;5.408;2023-04-07T13:18:43;102007.06;;;10.33;81.12
71764;BME280;59602;52.142;5.408;2023-04-07T13:21:12;102006.63;;;10.31;81.46
71764;BME280;59602;52.142;5.408;2023-04-07T13:23:58;102015.94;;;10.30;81.77
71764;BME280;59602;52.142;5.408;2023-04-07T13:26:25;102010.81;;;10.28;81.71
71764;BME280;59602;52.142;5.408;2023-04-07T13:28:53;102013.22;;;10.30;82.20
71764;BME280;59602;52.142;5.408;2023-04-07T13:31:20;102018.66;;;10.30;81.80
71764;BME280;59602;52.142;5.408;2023-04-07T13:33:49;102013.88;;;10.27;82.09
71764;BME280;59602;52.142;5.408;2023-04-07T13:36:16;102015.47;;;10.28;82.16
71764;BME280;59602;52.142;5.408;2023-04-07T13:38:48;102020.47;;;10.26;81.64
71764;BME280;59602;52.142;5.408;2023-04-07T13:41:15;102018.84;;;10.25;81.88
71764;BME280;59602;52.142;5.408;2023-04-07T13:43:42;102016.06;;;10.21;82.07